createdAt,value
2018-10-17T00:04:16.035Z,8.3
2018-10-17T00:14:15.536Z,7.8
2018-10-17T00:24:15.384Z,7.3
2018-10-17T00:34:14.876Z,8.9
2018-10-17T00:44:14.388Z,8.3
2018-10-17T00:54:13.845Z,7.8
2018-10-17T01:04:11.745Z,14.5
2018-10-17T01:14:11.259Z,8.1
2018-10-17T01:24:10.776Z,7.7
2018-10-17T01:34:08.551Z,15
2018-10-17T01:44:08.121Z,9.3
2018-10-17T01:54:07.654Z,7.8
2018-10-17T02:04:07.221Z,8.6
2018-10-17T02:14:06.750Z,8.2
2018-10-17T02:24:06.543Z,9.1
2018-10-17T02:34:06.107Z,8.7
2018-10-17T02:44:06.457Z,9.9
2018-10-17T02:54:04.420Z,15.2
2018-10-17T03:04:04.057Z,8.2
2018-10-17T03:15:58.868Z,11.7
2018-10-17T03:25:58.173Z,13.5
2018-10-17T03:35:59.525Z,13.8
2018-10-17T03:45:59.745Z,13.6
2018-10-17T03:55:59.855Z,14
2018-10-17T04:05:59.081Z,16.1
2018-10-17T04:15:57.089Z,16.2
2018-10-17T04:25:56.913Z,13.4
2018-10-17T04:35:59.433Z,13.4
2018-10-17T04:45:59.264Z,12.9
2018-10-17T04:55:59.441Z,13.5
2018-10-17T05:05:59.823Z,14.9
2018-10-17T05:15:59.585Z,14.3
2018-10-17T05:25:59.225Z,13.8
2018-10-17T05:35:59.232Z,13.1
2018-10-17T05:46:00.384Z,14.5
2018-10-17T05:56:00.683Z,14.7
2018-10-17T06:06:02.169Z,14.4
2018-10-17T06:16:01.811Z,14.5
2018-10-17T06:26:00.120Z,17.3
2018-10-17T06:36:01.124Z,13.3
2018-10-17T06:45:59.493Z,16.8
2018-10-17T06:56:00.058Z,13.9
2018-10-17T07:06:01.100Z,13.6
2018-10-17T07:16:01.308Z,16.1
2018-10-17T07:26:01.141Z,12.1
2018-10-17T07:36:03.842Z,15.5
2018-10-17T07:46:02.365Z,15.2
2018-10-17T07:56:00.952Z,14.7
2018-10-17T08:05:59.918Z,14.8
2018-10-17T08:16:00.192Z,12.1
2018-10-17T08:26:00.838Z,11.8
2018-10-17T08:36:04.407Z,12.4
2018-10-17T08:46:11.421Z,11.5
2018-10-17T08:56:12.436Z,11.5
2018-10-17T09:06:13.253Z,12.7
2018-10-17T09:16:12.300Z,13.7
2018-10-17T09:26:22.061Z,11.7
2018-10-17T09:36:22.942Z,12.8
2018-10-17T09:46:23.186Z,12.2
2018-10-17T09:56:21.583Z,14.1
2018-10-17T10:06:20.071Z,14.2
2018-10-17T10:16:20.061Z,11
2018-10-17T10:26:21.688Z,12
2018-10-17T10:36:20.457Z,13.7
2018-10-17T10:46:20.658Z,11.9
2018-10-17T10:56:21.175Z,11.8
2018-10-17T11:06:21.764Z,14.2
2018-10-17T11:16:23.471Z,13.4
2018-10-17T11:26:24.578Z,11.6
2018-10-17T11:36:26.336Z,12.7
2018-10-17T11:46:28.544Z,12.5
2018-10-17T11:56:29.142Z,12.5
2018-10-17T12:06:38.193Z,12.1
2018-10-17T12:16:40.108Z,13
2018-10-17T12:26:43.472Z,14.2
2018-10-17T12:36:47.463Z,15.5
2018-10-17T12:46:48.569Z,14.6
2018-10-17T12:56:50.871Z,12.3
2018-10-17T13:06:51.400Z,12
2018-10-17T13:16:53.558Z,11.2
2018-10-17T13:26:51.768Z,14.5
2018-10-17T13:36:53.195Z,12.1
2018-10-17T13:46:54.444Z,11.4
2018-10-17T13:56:59.518Z,11.7
2018-10-17T14:07:00.506Z,11.6
2018-10-17T14:17:02.013Z,12.5
2018-10-17T14:27:03.373Z,10.5
2018-10-17T14:37:04.894Z,9.4
2018-10-17T14:47:05.713Z,10.5
2018-10-17T14:57:06.117Z,10.8
2018-10-17T15:07:04.490Z,11.9
2018-10-17T15:17:04.057Z,11.4
2018-10-17T15:27:05.530Z,11.9
2018-10-17T15:37:04.291Z,11.8
2018-10-17T15:47:07.730Z,10.2
2018-10-17T15:57:09.879Z,10.4
2018-10-17T16:07:13.618Z,9.8
2018-10-17T16:17:15.716Z,13.8
2018-10-17T16:27:19.125Z,10.4
2018-10-17T16:37:20.349Z,11
2018-10-17T16:47:18.682Z,14.4
2018-10-17T16:57:20.524Z,12.4
2018-10-17T17:07:20.305Z,12.8
2018-10-17T17:17:20.203Z,12.9
2018-10-17T17:27:19.345Z,15.7
2018-10-17T17:37:20.573Z,14.8
2018-10-17T17:47:20.472Z,16.4
2018-10-17T17:57:20.594Z,15.7
2018-10-17T18:07:19.199Z,20.7
2018-10-17T18:17:19.177Z,17.5
2018-10-17T18:27:17.531Z,19.5
2018-10-17T18:37:18.853Z,18.1
2018-10-17T18:47:18.862Z,14.1
2018-10-17T18:57:18.412Z,15.6
2018-10-17T19:07:18.229Z,13.6
2018-10-17T19:17:18.300Z,13.9
2018-10-17T19:27:18.850Z,13.5
2018-10-17T19:37:18.789Z,12.5
2018-10-17T19:47:19.693Z,16.3
2018-10-17T19:57:21.678Z,16.9
2018-10-17T20:07:19.616Z,17.3
2018-10-17T20:17:20.885Z,14.1
2018-10-17T20:27:20.834Z,15
2018-10-17T20:37:20.752Z,15.9
2018-10-17T20:47:20.400Z,16.3
2018-10-17T20:57:20.094Z,13.8
2018-10-17T21:07:20.407Z,15.6
2018-10-17T21:17:20.091Z,14.6
2018-10-17T21:27:21.580Z,15.2
2018-10-17T21:37:21.281Z,14.9
2018-10-17T21:47:22.319Z,15.2
2018-10-17T21:57:22.359Z,16.2
2018-10-17T22:07:22.175Z,14.6
2018-10-17T22:17:22.950Z,14.8
2018-10-17T22:27:21.678Z,18.2
2018-10-17T22:37:19.955Z,18.3
2018-10-17T22:47:17.946Z,17.7
2018-10-17T22:57:17.626Z,14.2
2018-10-17T23:07:17.208Z,14.4
2018-10-17T23:17:15.090Z,18.4
2018-10-17T23:27:14.711Z,16.3
2018-10-17T23:37:14.374Z,14.7
2018-10-17T23:47:14.959Z,16.5
2018-10-17T23:57:17.726Z,15.6
